createdAt,value
2022-10-28T00:01:42.559Z,102032.03
2022-10-28T00:10:08.178Z,102037.19
2022-10-28T00:13:04.748Z,102035.41
2022-10-28T00:15:45.963Z,102031.91
2022-10-28T00:21:49.951Z,102037.75
2022-10-28T00:27:40.561Z,102022.97
2022-10-28T00:30:19.433Z,102028.16
2022-10-28T00:33:12.170Z,102027.25
2022-10-28T00:35:52.267Z,102029.94
2022-10-28T00:38:48.155Z,102029.94
2022-10-28T00:41:26.201Z,102017.00
2022-10-28T00:44:17.478Z,102023.09
2022-10-28T00:47:13.301Z,102024.22
2022-10-28T00:50:14.484Z,102026.81
2022-10-28T00:52:56.221Z,101962.69
2022-10-28T00:55:38.480Z,102001.34
2022-10-28T00:58:31.159Z,102021.63
2022-10-28T01:01:23.060Z,102013.88
2022-10-28T01:04:04.673Z,102016.56
2022-10-28T01:06:47.931Z,102014.91
2022-10-28T01:09:40.984Z,101974.47
2022-10-28T01:12:38.508Z,102016.66
2022-10-28T01:15:30.845Z,102021.97
2022-10-28T01:18:16.186Z,102019.38
2022-10-28T01:21:26.847Z,102004.53
2022-10-28T01:24:22.894Z,102014.84
2022-10-28T01:27:27.449Z,102007.94
2022-10-28T01:30:43.752Z,102001.09
2022-10-28T01:33:40.807Z,102006.28
2022-10-28T01:36:28.745Z,101865.59
2022-10-28T01:39:17.743Z,101997.78
2022-10-28T01:42:09.564Z,102003.06
2022-10-28T01:48:06.188Z,101996.31
2022-10-28T01:51:05.193Z,101988.53
2022-10-28T02:00:02.704Z,101927.72
2022-10-28T02:02:39.390Z,101843.34
2022-10-28T02:06:08.338Z,101818.22
2022-10-28T02:09:14.128Z,101826.56
2022-10-28T02:12:19.397Z,101901.63
2022-10-28T02:15:15.899Z,101921.66
2022-10-28T02:18:01.895Z,101911.13
2022-10-28T02:20:44.338Z,101820.47
2022-10-28T02:23:25.109Z,101934.00
2022-10-28T02:26:01.652Z,101968.56
2022-10-28T02:28:42.367Z,101983.97
2022-10-28T02:31:27.952Z,101815.28
2022-10-28T02:34:04.154Z,101917.66
2022-10-28T02:36:40.621Z,101929.66
2022-10-28T02:39:11.633Z,101892.22
2022-10-28T02:41:49.404Z,101876.03
2022-10-28T02:44:26.810Z,101861.88
2022-10-28T02:47:00.822Z,101944.69
2022-10-28T02:49:39.182Z,101870.06
2022-10-28T02:52:11.761Z,101955.50
2022-10-28T02:54:48.587Z,101946.59
2022-10-28T02:57:22.861Z,101825.00
2022-10-28T02:59:58.666Z,101914.44
2022-10-28T03:02:30.683Z,101885.34
2022-10-28T03:05:05.012Z,101935.31
2022-10-28T03:07:39.243Z,101845.00
2022-10-28T03:10:11.100Z,101916.03
2022-10-28T03:12:41.917Z,101908.91
2022-10-28T03:15:13.787Z,101920.22
2022-10-28T03:17:44.736Z,101900.19
2022-10-28T03:20:17.499Z,101906.91
2022-10-28T03:22:52.805Z,101836.44
2022-10-28T03:25:23.782Z,101806.88
2022-10-28T03:27:54.863Z,101802.81
2022-10-28T03:30:25.653Z,101778.69
2022-10-28T03:33:00.435Z,101882.69
2022-10-28T03:35:35.870Z,101840.84
2022-10-28T03:38:07.151Z,101901.44
2022-10-28T03:40:40.238Z,101899.06
2022-10-28T03:43:11.150Z,101809.59
2022-10-28T03:45:44.773Z,101883.69
2022-10-28T03:49:01.409Z,101875.78
2022-10-28T03:52:00.568Z,101838.75
2022-10-28T03:54:34.477Z,101789.28
2022-10-28T03:57:08.698Z,101814.47
2022-10-28T03:59:49.464Z,101891.59
2022-10-28T04:02:56.453Z,101886.41
2022-10-28T04:05:19.538Z,101804.94
2022-10-28T04:07:54.215Z,101747.91
2022-10-28T04:10:29.039Z,101853.03
2022-10-28T04:13:11.599Z,101877.88
2022-10-28T04:15:44.599Z,101878.09
2022-10-28T04:18:28.369Z,101742.84
2022-10-28T04:21:02.970Z,101896.50
2022-10-28T04:23:41.251Z,101795.59
2022-10-28T04:26:17.553Z,101866.41
2022-10-28T04:28:57.400Z,101767.16
2022-10-28T04:39:36.560Z,101727.31
2022-10-28T05:28:54.933Z,101769.88
2022-10-28T05:31:27.512Z,101800.06
2022-10-28T05:34:16.818Z,101840.53
2022-10-28T05:36:52.030Z,101748.84
2022-10-28T05:39:24.180Z,101749.25
2022-10-28T05:41:58.499Z,101757.72
2022-10-28T05:44:33.280Z,101835.34
2022-10-28T05:47:07.500Z,101733.00
2022-10-28T05:49:42.838Z,101776.56
2022-10-28T05:52:16.078Z,101874.06
2022-10-28T05:54:52.287Z,101853.50
2022-10-28T05:57:24.450Z,101852.56
2022-10-28T05:59:59.599Z,101776.41
2022-10-28T06:03:30.942Z,101791.06
2022-10-28T06:09:24.108Z,101826.34
2022-10-28T06:11:56.106Z,101814.16
2022-10-28T06:14:29.097Z,101899.13
2022-10-28T06:17:02.944Z,101868.91
2022-10-28T06:19:38.467Z,101870.47
2022-10-28T06:22:11.141Z,101696.09
2022-10-28T06:24:42.329Z,101841.50
2022-10-28T06:27:21.359Z,101872.34
2022-10-28T06:29:52.683Z,101810.13
2022-10-28T06:32:36.601Z,101847.56
2022-10-28T06:35:25.413Z,101785.88
2022-10-28T06:37:56.980Z,101715.63
2022-10-28T06:40:29.075Z,101801.91
2022-10-28T06:43:05.895Z,101866.94
2022-10-28T06:45:37.506Z,101772.00
2022-10-28T06:48:13.403Z,101903.34
2022-10-28T06:50:44.960Z,101867.56
2022-10-28T06:53:19.390Z,101849.13
2022-10-28T06:55:56.463Z,101856.25
2022-10-28T06:58:28.537Z,101877.06
2022-10-28T07:00:59.777Z,101779.31
2022-10-28T07:03:33.953Z,101808.16
2022-10-28T07:06:05.219Z,101841.78
2022-10-28T07:08:36.141Z,101786.94
2022-10-28T07:11:09.867Z,101814.34
2022-10-28T07:13:42.539Z,101844.59
2022-10-28T07:16:27.533Z,101833.50
2022-10-28T07:19:02.247Z,101850.22
2022-10-28T07:21:35.578Z,101864.13
2022-10-28T07:24:06.851Z,101812.28
2022-10-28T07:26:38.897Z,101867.03
2022-10-28T07:29:14.754Z,101754.00
2022-10-28T07:31:46.866Z,101879.25
2022-10-28T07:34:38.304Z,101874.47
2022-10-28T07:37:22.646Z,101866.47
2022-10-28T07:39:53.691Z,101817.44
2022-10-28T07:42:25.389Z,101779.16
2022-10-28T07:44:56.366Z,101822.72
2022-10-28T07:47:27.268Z,101816.13
2022-10-28T07:50:00.287Z,101761.06
2022-10-28T07:52:31.216Z,101742.94
2022-10-28T07:55:02.607Z,101864.56
2022-10-28T07:57:38.446Z,101808.25
2022-10-28T08:00:11.160Z,101804.63
2022-10-28T08:02:44.387Z,101809.28
2022-10-28T08:05:17.665Z,101803.25
2022-10-28T08:07:49.481Z,101749.16
2022-10-28T08:10:25.321Z,101878.56
2022-10-28T08:13:01.929Z,101857.94
2022-10-28T08:15:49.932Z,101878.00
2022-10-28T08:18:21.052Z,101844.94
2022-10-28T08:20:54.120Z,101838.00
2022-10-28T08:23:25.450Z,101863.75
2022-10-28T08:25:57.105Z,101866.53
2022-10-28T08:28:28.469Z,101877.00
2022-10-28T08:31:09.192Z,101811.28
2022-10-28T08:33:41.412Z,101748.97
2022-10-28T08:36:16.942Z,101732.09
2022-10-28T08:38:49.425Z,101760.59
2022-10-28T08:41:34.803Z,101817.38
2022-10-28T08:44:37.687Z,101858.56
2022-10-28T08:47:19.546Z,101853.22
2022-10-28T08:49:55.680Z,101764.41
2022-10-28T08:52:35.011Z,101757.97
2022-10-28T08:55:10.736Z,101846.34
2022-10-28T08:57:45.151Z,101785.63
2022-10-28T09:00:23.587Z,101813.00
2022-10-28T09:03:09.344Z,101835.34
2022-10-28T09:05:41.837Z,101755.25
2022-10-28T09:08:25.407Z,101738.53
2022-10-28T09:11:26.354Z,101810.06
2022-10-28T09:14:24.440Z,101805.06
2022-10-28T09:17:12.740Z,101791.19
2022-10-28T09:19:53.308Z,101839.28
2022-10-28T09:22:27.889Z,101846.97
2022-10-28T09:25:08.008Z,101746.94
2022-10-28T09:27:59.004Z,101757.75
2022-10-28T09:30:39.749Z,101780.63
2022-10-28T09:33:51.901Z,101841.56
2022-10-28T09:36:29.572Z,101750.88
2022-10-28T09:39:04.811Z,101843.28
2022-10-28T09:41:44.235Z,101812.53
2022-10-28T09:44:24.790Z,101794.94
2022-10-28T09:47:08.398Z,101802.69
2022-10-28T09:49:42.523Z,101702.06
2022-10-28T09:52:26.516Z,101820.75
2022-10-28T09:56:14.318Z,101825.16
2022-10-28T09:58:50.155Z,101738.22
2022-10-28T10:01:22.977Z,101827.09
2022-10-28T10:03:57.744Z,101806.16
2022-10-28T10:06:32.013Z,101766.47
2022-10-28T10:09:03.285Z,101747.78
2022-10-28T10:11:46.012Z,101817.53
2022-10-28T10:14:21.435Z,101731.22
2022-10-28T10:16:57.381Z,101744.97
2022-10-28T10:19:28.797Z,101768.81
2022-10-28T10:22:00.015Z,101807.84
2022-10-28T10:24:35.575Z,101799.66
2022-10-28T10:27:20.637Z,101814.50
2022-10-28T10:29:55.379Z,101741.72
2022-10-28T10:32:32.426Z,101798.88
2022-10-28T10:35:18.314Z,101750.31
2022-10-28T10:37:51.021Z,101697.81
2022-10-28T10:40:27.178Z,101698.75
2022-10-28T10:43:10.035Z,101775.31
2022-10-28T10:45:55.341Z,101790.88
2022-10-28T10:48:26.377Z,101777.75
2022-10-28T10:51:00.683Z,101746.31
2022-10-28T10:53:34.295Z,101806.88
2022-10-28T10:56:42.894Z,101798.06
2022-10-28T10:59:27.687Z,101778.56
2022-10-28T11:02:01.577Z,101770.53
2022-10-28T11:04:37.782Z,101777.69
2022-10-28T11:07:09.129Z,101770.56
2022-10-28T11:09:53.025Z,101728.66
2022-10-28T11:13:43.572Z,101748.59
2022-10-28T11:16:29.449Z,101775.16
2022-10-28T11:19:21.006Z,101775.03
2022-10-28T11:22:05.764Z,101751.88
2022-10-28T11:24:59.000Z,101730.22
2022-10-28T11:27:43.178Z,101801.16
2022-10-28T11:30:19.129Z,101686.75
2022-10-28T11:33:28.307Z,101778.31
2022-10-28T11:36:15.195Z,101733.88
2022-10-28T11:39:03.289Z,101666.25
2022-10-28T11:41:43.254Z,101757.59
2022-10-28T11:44:28.104Z,101730.59
2022-10-28T11:47:22.550Z,101665.56
2022-10-28T11:50:29.832Z,101733.91
2022-10-28T11:53:26.337Z,101754.47
2022-10-28T11:56:06.585Z,101711.41
2022-10-28T11:58:57.359Z,101699.59
2022-10-28T12:01:48.732Z,101731.22
2022-10-28T12:04:36.600Z,101649.63
2022-10-28T12:07:29.135Z,101673.22
2022-10-28T12:10:35.549Z,101760.59
2022-10-28T12:13:25.658Z,101670.06
2022-10-28T12:16:23.885Z,101739.72
2022-10-28T12:19:00.656Z,101639.38
2022-10-28T12:24:16.055Z,101766.84
2022-10-28T12:26:54.843Z,101728.97
2022-10-28T12:29:29.786Z,101686.22
2022-10-28T12:32:08.783Z,101758.94
2022-10-28T12:34:45.009Z,101705.44
2022-10-28T12:37:21.414Z,101671.84
2022-10-28T12:40:07.455Z,101734.63
2022-10-28T12:42:43.380Z,101746.72
2022-10-28T12:45:17.811Z,101641.34
2022-10-28T12:47:56.613Z,101715.47
2022-10-28T12:50:35.003Z,101648.50
2022-10-28T12:53:24.393Z,101688.81
2022-10-28T12:56:00.600Z,101668.16
2022-10-28T12:58:38.693Z,101719.09
2022-10-28T13:01:13.906Z,101707.56
2022-10-28T13:03:45.134Z,101624.19
2022-10-28T13:06:38.439Z,101685.28
2022-10-28T13:09:45.455Z,101671.63
2022-10-28T13:12:33.564Z,101619.19
2022-10-28T13:15:33.938Z,101725.53
2022-10-28T13:18:25.250Z,101723.16
2022-10-28T13:21:06.432Z,101689.09
2022-10-28T13:23:46.581Z,101693.38
2022-10-28T13:26:27.221Z,101722.44
2022-10-28T13:29:00.199Z,101726.50
2022-10-28T13:31:42.730Z,101622.94
2022-10-28T13:34:19.568Z,101623.09
2022-10-28T13:36:58.272Z,101689.88
2022-10-28T13:39:45.334Z,101628.50
2022-10-28T13:42:48.560Z,101690.28
2022-10-28T13:45:51.793Z,101717.44
2022-10-28T13:49:01.396Z,101713.09
2022-10-28T13:51:36.720Z,101713.19
2022-10-28T13:54:20.643Z,101639.47
2022-10-28T13:56:55.652Z,101582.25
2022-10-28T13:59:31.839Z,101725.31
2022-10-28T14:05:16.599Z,101710.69
2022-10-28T14:07:57.430Z,101673.25
2022-10-28T14:10:30.902Z,101704.78
2022-10-28T14:13:04.150Z,101638.19
2022-10-28T14:15:37.047Z,101550.28
2022-10-28T14:18:37.468Z,101640.94
2022-10-28T14:21:03.464Z,101677.22
2022-10-28T14:24:18.947Z,101687.56
2022-10-28T14:27:28.286Z,101680.63
2022-10-28T14:30:19.933Z,101691.91
2022-10-28T14:33:22.415Z,101664.69
2022-10-28T14:36:02.851Z,101668.22
2022-10-28T14:39:06.065Z,101606.75
2022-10-28T14:48:15.879Z,101594.38
2022-10-28T14:50:49.732Z,101629.69
2022-10-28T14:53:30.554Z,101603.25
2022-10-28T14:58:54.832Z,101633.03
2022-10-28T15:01:32.786Z,101675.63
2022-10-28T15:04:08.447Z,101587.72
2022-10-28T15:06:43.641Z,101656.63
2022-10-28T15:09:23.397Z,101677.38
2022-10-28T15:11:59.850Z,101609.00
2022-10-28T15:14:34.973Z,101607.63
2022-10-28T15:17:17.951Z,101652.09
2022-10-28T15:19:49.947Z,101623.03
2022-10-28T15:22:23.560Z,101635.56
2022-10-28T15:25:02.484Z,101638.09
2022-10-28T15:27:36.755Z,101663.41
2022-10-28T15:30:10.611Z,101636.56
2022-10-28T15:32:41.507Z,101661.75
2022-10-28T15:35:43.306Z,101663.75
2022-10-28T15:38:39.042Z,101608.31
2022-10-28T15:41:44.922Z,101612.63
2022-10-28T15:44:48.681Z,101655.19
2022-10-28T15:47:26.107Z,101620.03
2022-10-28T15:50:37.952Z,101654.31
2022-10-28T15:53:36.408Z,101604.91
2022-10-28T15:56:25.272Z,101637.50
2022-10-28T15:59:14.026Z,101585.00
2022-10-28T16:01:49.634Z,101634.25
2022-10-28T16:04:50.488Z,101655.41
2022-10-28T16:07:21.505Z,101629.16
2022-10-28T16:09:52.955Z,101637.13
2022-10-28T16:12:27.445Z,101652.03
2022-10-28T16:15:02.262Z,101591.38
2022-10-28T16:17:39.199Z,101623.97
2022-10-28T16:20:18.538Z,101648.75
2022-10-28T16:22:52.234Z,101645.38
2022-10-28T16:25:24.976Z,101573.41
2022-10-28T16:27:56.444Z,101640.19
2022-10-28T16:30:27.646Z,101590.00
2022-10-28T16:33:00.375Z,101631.00
2022-10-28T16:35:31.384Z,101644.50
2022-10-28T16:38:03.739Z,101643.66
2022-10-28T16:40:52.338Z,101639.34
2022-10-28T16:43:25.648Z,101616.63
2022-10-28T16:46:00.425Z,101612.13
2022-10-28T16:48:34.481Z,101594.47
2022-10-28T16:51:07.398Z,101638.53
2022-10-28T16:53:39.736Z,101604.03
2022-10-28T16:56:14.427Z,101625.31
2022-10-28T16:58:47.804Z,101616.63
2022-10-28T17:01:22.721Z,101587.56
2022-10-28T17:03:56.440Z,101517.09
2022-10-28T17:06:27.714Z,101633.09
2022-10-28T17:09:03.381Z,101562.91
2022-10-28T17:11:34.743Z,101516.19
2022-10-28T17:14:05.628Z,101626.16
2022-10-28T17:16:38.081Z,101530.13
2022-10-28T17:19:14.021Z,101529.28
2022-10-28T17:21:45.657Z,101617.38
2022-10-28T17:24:16.812Z,101630.34
2022-10-28T17:26:48.713Z,101616.53
2022-10-28T17:29:20.144Z,101615.63
2022-10-28T17:34:40.848Z,101561.03
2022-10-28T17:37:12.518Z,101605.91
2022-10-28T17:39:43.427Z,101496.47
2022-10-28T17:42:14.516Z,101605.25
2022-10-28T17:44:46.106Z,101518.47
2022-10-28T17:47:17.703Z,101572.09
2022-10-28T17:49:50.512Z,101585.16
2022-10-28T17:52:21.445Z,101529.75
2022-10-28T17:54:52.449Z,101522.75
2022-10-28T17:57:23.450Z,101485.84
2022-10-28T17:59:54.410Z,101545.44
2022-10-28T18:02:25.860Z,101590.59
2022-10-28T18:04:58.651Z,101506.13
2022-10-28T18:07:29.583Z,101594.00
2022-10-28T18:10:00.460Z,101589.72
2022-10-28T18:12:31.622Z,101565.16
2022-10-28T18:15:03.475Z,101469.50
2022-10-28T18:17:34.465Z,101532.69
2022-10-28T18:20:07.294Z,101533.66
2022-10-28T18:22:39.079Z,101594.09
2022-10-28T18:25:45.651Z,101595.06
2022-10-28T18:28:52.547Z,101589.88
2022-10-28T18:32:01.639Z,101595.88
2022-10-28T18:35:08.285Z,101595.06
2022-10-28T18:38:15.202Z,101584.69
2022-10-28T18:41:22.089Z,101584.69
2022-10-28T18:44:32.799Z,101528.56
2022-10-28T18:47:39.624Z,101489.97
2022-10-28T18:50:49.216Z,101595.06
2022-10-28T18:53:23.147Z,101523.19
2022-10-28T18:55:56.897Z,101452.00
2022-10-28T18:58:33.894Z,101562.78
2022-10-28T19:01:11.670Z,101581.25
2022-10-28T19:03:43.229Z,101577.44
2022-10-28T19:06:23.173Z,101563.66
2022-10-28T19:09:35.514Z,101588.28
2022-10-28T19:13:05.184Z,101586.63
2022-10-28T19:16:37.139Z,101590.03
2022-10-28T19:19:40.364Z,101592.59
2022-10-28T19:22:47.422Z,101581.38
2022-10-28T19:25:54.214Z,101590.94
2022-10-28T19:29:01.274Z,101583.16
2022-10-28T19:32:11.449Z,101593.44
2022-10-28T19:35:18.765Z,101584.78
2022-10-28T19:38:27.182Z,101586.56
2022-10-28T19:41:33.970Z,101583.13
2022-10-28T19:44:51.276Z,101584.78
2022-10-28T19:47:58.345Z,101576.19
2022-10-28T19:51:06.027Z,101582.25
2022-10-28T19:54:13.550Z,101584.84
2022-10-28T19:57:22.698Z,101587.44
2022-10-28T20:00:29.804Z,101583.97
2022-10-28T20:03:39.366Z,101582.19
2022-10-28T20:06:59.528Z,101583.91
2022-10-28T20:10:24.670Z,101579.53
2022-10-28T20:13:31.649Z,101579.59
2022-10-28T20:16:49.361Z,101583.03
2022-10-28T20:19:57.074Z,101589.16
2022-10-28T20:23:04.765Z,101589.16
2022-10-28T20:26:13.688Z,101581.44
2022-10-28T20:29:20.523Z,101594.31
2022-10-28T20:32:30.182Z,101591.81
2022-10-28T20:35:37.641Z,101583.19
2022-10-28T20:38:44.926Z,101579.66
2022-10-28T20:41:52.138Z,101577.94
2022-10-28T20:44:59.231Z,101537.47
2022-10-28T20:48:09.128Z,101578.00
2022-10-28T20:51:15.800Z,101572.81
2022-10-28T20:54:22.473Z,101575.41
2022-10-28T20:57:29.977Z,101577.13
2022-10-28T21:00:39.518Z,101577.13
2022-10-28T21:03:52.929Z,101581.44
2022-10-28T21:07:07.870Z,101579.66
2022-10-28T21:10:17.708Z,101574.59
2022-10-28T21:13:55.262Z,101572.03
2022-10-28T21:17:05.829Z,101570.34
2022-10-28T21:20:19.421Z,101565.16
2022-10-28T21:26:28.890Z,101486.13
2022-10-28T21:28:59.195Z,101559.25
2022-10-28T21:31:30.849Z,101418.91
2022-10-28T21:34:04.452Z,101573.13
2022-10-28T21:36:38.881Z,101523.84
2022-10-28T21:39:27.093Z,101433.63
2022-10-28T21:41:59.770Z,101571.47
2022-10-28T21:44:33.154Z,101564.13
2022-10-28T21:47:04.119Z,101582.91
2022-10-28T21:49:38.482Z,101582.06
2022-10-28T21:52:09.577Z,101571.72
2022-10-28T21:54:40.408Z,101529.28
2022-10-28T21:57:13.502Z,101493.44
2022-10-28T21:59:44.671Z,101493.44
2022-10-28T22:02:15.667Z,101493.44
2022-10-28T22:04:46.585Z,101567.03
2022-10-28T22:07:17.355Z,101601.28
2022-10-28T22:09:48.236Z,101538.00
2022-10-28T22:12:23.210Z,101576.91
2022-10-28T22:14:54.624Z,101478.69
2022-10-28T22:17:25.513Z,101516.34
2022-10-28T22:20:03.463Z,101577.88
2022-10-28T22:22:34.469Z,101587.56
2022-10-28T22:25:07.803Z,101580.47
2022-10-28T22:27:44.540Z,101597.16
2022-10-28T22:30:20.579Z,101557.91
2022-10-28T22:32:55.187Z,101547.53
2022-10-28T22:35:29.235Z,101496.44
2022-10-28T22:38:02.474Z,101594.88
2022-10-28T22:40:35.462Z,101580.84
2022-10-28T22:43:10.738Z,101587.94
2022-10-28T22:45:41.503Z,101528.22
2022-10-28T22:48:12.675Z,101574.06
2022-10-28T22:50:45.173Z,101525.03
2022-10-28T22:53:16.040Z,101526.53
2022-10-28T22:55:46.847Z,101524.06
2022-10-28T22:58:22.404Z,101517.94
2022-10-28T23:00:56.417Z,101581.28
2022-10-28T23:03:27.932Z,101588.41
2022-10-28T23:06:01.068Z,101576.34
2022-10-28T23:08:32.382Z,101571.22
2022-10-28T23:11:03.277Z,101550.03
2022-10-28T23:13:38.953Z,101567.88
2022-10-28T23:16:10.999Z,101513.13
2022-10-28T23:18:45.907Z,101574.75
2022-10-28T23:21:20.198Z,101559.28
2022-10-28T23:23:55.570Z,101468.75
2022-10-28T23:26:27.198Z,101457.25
2022-10-28T23:29:01.428Z,101432.94
2022-10-28T23:31:32.563Z,101443.59
2022-10-28T23:34:03.667Z,101548.78
2022-10-28T23:36:35.656Z,101513.22
2022-10-28T23:39:08.231Z,101525.56
2022-10-28T23:41:38.960Z,101493.06
2022-10-28T23:44:11.563Z,101482.56
2022-10-28T23:46:45.459Z,101501.03
2022-10-28T23:49:19.450Z,101417.16
2022-10-28T23:51:50.400Z,101403.41
2022-10-28T23:54:21.284Z,101505.16
2022-10-28T23:56:56.175Z,101556.69
2022-10-28T23:59:31.509Z,101547.56
